Lyonsdale, New York
Current Conditions -  °F | °C
As of 8:53 AM on Saturday 22 Nov 2014 (Local Time) from KRME Reporting Station
Clear Clear  
Wind Chill: 14°   Ceiling: Unl
Heat Index: 23°   Visibility: 10mi
Dew Point: 13°   Wind: 8mph
Humidity: 65%   Direction: 110°ESE
Pressure: 30.31"   Gusts: NA
Location:  43.6433°N, 75.3374°W
Report Text: KRME 221353Z 11007KT 10SM CLR M05/M11 A3031 RMK AO2 SLP269 T10501106
Loading
Personal Weather Stations






























Interactive Weather Map New forecast layout! Learn more

10-Day Weather Forecast

Advertisements
Track Severe Weather on mobile